sensor_id;sensor_type;location;lat;lon;timestamp;P1;durP1;ratioP1;P2;durP2;ratioP2
37859;SDS011;23698;52.014;5.190;2023-03-01T00:00:36;15.45;;;9.07;;
37859;SDS011;23698;52.014;5.190;2023-03-01T00:03:23;15.60;;;8.75;;
37859;SDS011;23698;52.014;5.190;2023-03-01T00:06:10;15.35;;;8.52;;
37859;SDS011;23698;52.014;5.190;2023-03-01T00:08:56;14.32;;;9.25;;
37859;SDS011;23698;52.014;5.190;2023-03-01T00:11:44;16.50;;;9.00;;
37859;SDS011;23698;52.014;5.190;2023-03-01T00:14:32;15.30;;;9.10;;
37859;SDS011;23698;52.014;5.190;2023-03-01T00:17:18;18.38;;;9.88;;
37859;SDS011;23698;52.014;5.190;2023-03-01T00:20:05;17.95;;;9.48;;
37859;SDS011;23698;52.014;5.190;2023-03-01T00:22:55;21.13;;;9.55;;
37859;SDS011;23698;52.014;5.190;2023-03-01T00:25:41;23.17;;;9.82;;
37859;SDS011;23698;52.014;5.190;2023-03-01T00:28:29;21.25;;;9.70;;
37859;SDS011;23698;52.014;5.190;2023-03-01T00:31:16;14.70;;;8.90;;
37859;SDS011;23698;52.014;5.190;2023-03-01T00:34:05;16.75;;;9.50;;
37859;SDS011;23698;52.014;5.190;2023-03-01T00:36:53;21.38;;;10.52;;
37859;SDS011;23698;52.014;5.190;2023-03-01T00:39:39;18.08;;;8.93;;
37859;SDS011;23698;52.014;5.190;2023-03-01T00:42:27;16.13;;;9.50;;
37859;SDS011;23698;52.014;5.190;2023-03-01T01:24:22;20.02;;;10.70;;
37859;SDS011;23698;52.014;5.190;2023-03-01T01:27:08;14.43;;;9.45;;
37859;SDS011;23698;52.014;5.190;2023-03-01T01:29:54;19.23;;;9.68;;
37859;SDS011;23698;52.014;5.190;2023-03-01T01:32:41;17.38;;;10.32;;
37859;SDS011;23698;52.014;5.190;2023-03-01T01:35:27;18.77;;;10.38;;
37859;SDS011;23698;52.014;5.190;2023-03-01T01:38:13;16.83;;;9.95;;
37859;SDS011;23698;52.014;5.190;2023-03-01T01:41:01;18.70;;;10.68;;
37859;SDS011;23698;52.014;5.190;2023-03-01T01:43:49;20.25;;;10.95;;
37859;SDS011;23698;52.014;5.190;2023-03-01T01:46:56;20.25;;;11.18;;
37859;SDS011;23698;52.014;5.190;2023-03-01T01:49:44;19.52;;;11.27;;
37859;SDS011;23698;52.014;5.190;2023-03-01T01:52:34;18.77;;;11.45;;
37859;SDS011;23698;52.014;5.190;2023-03-01T01:55:24;23.33;;;11.43;;
37859;SDS011;23698;52.014;5.190;2023-03-01T01:58:15;23.20;;;12.20;;
37859;SDS011;23698;52.014;5.190;2023-03-01T02:01:05;27.15;;;12.60;;
37859;SDS011;23698;52.014;5.190;2023-03-01T02:03:52;22.13;;;12.10;;
37859;SDS011;23698;52.014;5.190;2023-03-01T02:06:39;17.48;;;11.30;;
37859;SDS011;23698;52.014;5.190;2023-03-01T02:09:30;25.15;;;12.20;;
37859;SDS011;23698;52.014;5.190;2023-03-01T02:12:19;21.00;;;12.40;;
37859;SDS011;23698;52.014;5.190;2023-03-01T02:15:10;19.95;;;12.75;;
37859;SDS011;23698;52.014;5.190;2023-03-01T02:17:56;20.23;;;12.00;;
37859;SDS011;23698;52.014;5.190;2023-03-01T02:20:44;23.30;;;12.38;;
37859;SDS011;23698;52.014;5.190;2023-03-01T02:23:41;21.30;;;11.00;;
37859;SDS011;23698;52.014;5.190;2023-03-01T02:26:31;20.77;;;12.90;;
37859;SDS011;23698;52.014;5.190;2023-03-01T02:29:24;21.85;;;12.05;;
37859;SDS011;23698;52.014;5.190;2023-03-01T02:32:11;23.42;;;12.70;;
37859;SDS011;23698;52.014;5.190;2023-03-01T02:35:00;19.88;;;12.23;;
37859;SDS011;23698;52.014;5.190;2023-03-01T02:37:51;22.70;;;12.25;;
37859;SDS011;23698;52.014;5.190;2023-03-01T02:40:37;23.67;;;12.98;;
37859;SDS011;23698;52.014;5.190;2023-03-01T02:43:27;27.25;;;13.05;;
37859;SDS011;23698;52.014;5.190;2023-03-01T02:46:18;29.17;;;13.20;;
37859;SDS011;23698;52.014;5.190;2023-03-01T02:49:16;21.33;;;11.65;;
37859;SDS011;23698;52.014;5.190;2023-03-01T02:52:17;25.60;;;13.60;;
37859;SDS011;23698;52.014;5.190;2023-03-01T02:55:14;24.48;;;13.45;;
37859;SDS011;23698;52.014;5.190;2023-03-01T02:58:03;26.40;;;12.50;;
37859;SDS011;23698;52.014;5.190;2023-03-01T03:00:51;21.42;;;12.60;;
37859;SDS011;23698;52.014;5.190;2023-03-01T03:03:40;24.95;;;12.80;;
37859;SDS011;23698;52.014;5.190;2023-03-01T03:06:28;21.50;;;12.65;;
37859;SDS011;23698;52.014;5.190;2023-03-01T03:09:16;27.05;;;13.27;;
37859;SDS011;23698;52.014;5.190;2023-03-01T03:12:04;19.92;;;11.95;;
37859;SDS011;23698;52.014;5.190;2023-03-01T03:14:51;26.70;;;13.25;;
37859;SDS011;23698;52.014;5.190;2023-03-01T03:17:38;20.92;;;12.25;;
37859;SDS011;23698;52.014;5.190;2023-03-01T03:20:27;20.67;;;12.70;;
37859;SDS011;23698;52.014;5.190;2023-03-01T03:23:14;24.73;;;13.35;;
37859;SDS011;23698;52.014;5.190;2023-03-01T03:26:02;25.30;;;13.18;;
37859;SDS011;23698;52.014;5.190;2023-03-01T03:28:49;23.25;;;13.02;;
37859;SDS011;23698;52.014;5.190;2023-03-01T03:31:36;27.63;;;13.48;;
37859;SDS011;23698;52.014;5.190;2023-03-01T03:34:22;21.75;;;13.25;;
37859;SDS011;23698;52.014;5.190;2023-03-01T03:37:10;23.40;;;12.60;;
37859;SDS011;23698;52.014;5.190;2023-03-01T03:40:16;21.98;;;13.20;;
37859;SDS011;23698;52.014;5.190;2023-03-01T03:43:03;22.65;;;12.27;;
37859;SDS011;23698;52.014;5.190;2023-03-01T03:45:50;27.02;;;13.55;;
37859;SDS011;23698;52.014;5.190;2023-03-01T03:48:41;20.85;;;12.00;;
37859;SDS011;23698;52.014;5.190;2023-03-01T03:51:28;22.05;;;12.13;;
37859;SDS011;23698;52.014;5.190;2023-03-01T03:54:16;24.40;;;12.75;;
37859;SDS011;23698;52.014;5.190;2023-03-01T03:57:03;26.13;;;14.00;;
37859;SDS011;23698;52.014;5.190;2023-03-01T03:59:49;26.98;;;12.95;;
37859;SDS011;23698;52.014;5.190;2023-03-01T04:02:35;24.42;;;13.35;;
37859;SDS011;23698;52.014;5.190;2023-03-01T04:05:22;25.90;;;13.48;;
37859;SDS011;23698;52.014;5.190;2023-03-01T04:08:09;21.75;;;11.63;;
37859;SDS011;23698;52.014;5.190;2023-03-01T04:10:58;21.17;;;11.93;;
37859;SDS011;23698;52.014;5.190;2023-03-01T04:14:06;25.65;;;12.68;;
37859;SDS011;23698;52.014;5.190;2023-03-01T04:16:53;20.08;;;11.73;;
37859;SDS011;23698;52.014;5.190;2023-03-01T04:19:39;23.55;;;12.43;;
37859;SDS011;23698;52.014;5.190;2023-03-01T04:22:28;22.80;;;12.63;;
37859;SDS011;23698;52.014;5.190;2023-03-01T04:25:16;23.75;;;11.98;;
37859;SDS011;23698;52.014;5.190;2023-03-01T04:28:04;19.10;;;11.75;;
37859;SDS011;23698;52.014;5.190;2023-03-01T04:30:51;24.65;;;13.10;;
37859;SDS011;23698;52.014;5.190;2023-03-01T04:33:38;20.77;;;11.75;;
37859;SDS011;23698;52.014;5.190;2023-03-01T04:36:26;21.52;;;12.02;;
37859;SDS011;23698;52.014;5.190;2023-03-01T04:39:14;20.38;;;11.05;;
37859;SDS011;23698;52.014;5.190;2023-03-01T04:42:01;18.88;;;12.23;;
37859;SDS011;23698;52.014;5.190;2023-03-01T04:44:49;22.35;;;11.88;;
37859;SDS011;23698;52.014;5.190;2023-03-01T04:47:36;28.20;;;13.00;;
37859;SDS011;23698;52.014;5.190;2023-03-01T04:50:23;20.75;;;11.38;;
37859;SDS011;23698;52.014;5.190;2023-03-01T04:53:10;21.20;;;11.27;;
37859;SDS011;23698;52.014;5.190;2023-03-01T04:55:57;22.88;;;12.50;;
37859;SDS011;23698;52.014;5.190;2023-03-01T04:58:44;23.80;;;12.75;;
37859;SDS011;23698;52.014;5.190;2023-03-01T05:01:32;28.48;;;13.65;;
37859;SDS011;23698;52.014;5.190;2023-03-01T05:04:20;21.67;;;12.43;;
37859;SDS011;23698;52.014;5.190;2023-03-01T05:07:07;22.83;;;12.60;;
37859;SDS011;23698;52.014;5.190;2023-03-01T05:09:54;22.00;;;11.93;;
37859;SDS011;23698;52.014;5.190;2023-03-01T05:12:41;25.85;;;14.02;;
37859;SDS011;23698;52.014;5.190;2023-03-01T05:15:28;22.45;;;11.98;;
37859;SDS011;23698;52.014;5.190;2023-03-01T05:18:17;21.90;;;12.60;;
37859;SDS011;23698;52.014;5.190;2023-03-01T05:21:04;22.33;;;12.13;;
37859;SDS011;23698;52.014;5.190;2023-03-01T05:23:52;20.60;;;11.35;;
37859;SDS011;23698;52.014;5.190;2023-03-01T05:26:39;27.40;;;11.68;;
37859;SDS011;23698;52.014;5.190;2023-03-01T05:29:26;23.42;;;12.35;;
37859;SDS011;23698;52.014;5.190;2023-03-01T05:32:14;22.08;;;11.65;;
37859;SDS011;23698;52.014;5.190;2023-03-01T05:35:02;23.70;;;12.80;;
37859;SDS011;23698;52.014;5.190;2023-03-01T05:37:50;25.00;;;13.32;;
37859;SDS011;23698;52.014;5.190;2023-03-01T05:40:37;23.70;;;12.38;;
37859;SDS011;23698;52.014;5.190;2023-03-01T05:43:23;21.13;;;11.57;;
37859;SDS011;23698;52.014;5.190;2023-03-01T05:46:10;23.45;;;12.45;;
37859;SDS011;23698;52.014;5.190;2023-03-01T05:48:58;22.02;;;12.05;;
37859;SDS011;23698;52.014;5.190;2023-03-01T05:51:48;21.77;;;11.77;;
37859;SDS011;23698;52.014;5.190;2023-03-01T05:54:36;20.63;;;11.38;;
37859;SDS011;23698;52.014;5.190;2023-03-01T05:57:23;25.58;;;12.00;;
37859;SDS011;23698;52.014;5.190;2023-03-01T06:00:11;21.85;;;11.63;;
37859;SDS011;23698;52.014;5.190;2023-03-01T06:02:59;23.60;;;10.95;;
37859;SDS011;23698;52.014;5.190;2023-03-01T06:05:46;23.95;;;12.40;;
37859;SDS011;23698;52.014;5.190;2023-03-01T06:08:34;20.27;;;11.07;;
37859;SDS011;23698;52.014;5.190;2023-03-01T06:11:20;22.27;;;11.93;;
37859;SDS011;23698;52.014;5.190;2023-03-01T06:14:07;24.50;;;12.18;;
37859;SDS011;23698;52.014;5.190;2023-03-01T06:16:55;23.20;;;12.50;;
37859;SDS011;23698;52.014;5.190;2023-03-01T06:19:41;19.58;;;10.88;;
37859;SDS011;23698;52.014;5.190;2023-03-01T06:22:28;22.17;;;11.18;;
37859;SDS011;23698;52.014;5.190;2023-03-01T06:25:16;21.75;;;11.10;;
37859;SDS011;23698;52.014;5.190;2023-03-01T06:28:04;23.38;;;12.57;;
37859;SDS011;23698;52.014;5.190;2023-03-01T06:30:50;20.63;;;11.15;;
37859;SDS011;23698;52.014;5.190;2023-03-01T06:33:37;25.20;;;12.82;;
37859;SDS011;23698;52.014;5.190;2023-03-01T06:36:23;20.40;;;10.95;;
37859;SDS011;23698;52.014;5.190;2023-03-01T06:39:10;23.02;;;10.98;;
37859;SDS011;23698;52.014;5.190;2023-03-01T06:41:58;24.98;;;13.15;;
37859;SDS011;23698;52.014;5.190;2023-03-01T06:44:44;21.55;;;11.93;;
37859;SDS011;23698;52.014;5.190;2023-03-01T06:47:31;28.55;;;13.43;;
37859;SDS011;23698;52.014;5.190;2023-03-01T06:50:19;33.22;;;15.00;;
37859;SDS011;23698;52.014;5.190;2023-03-01T06:53:05;28.13;;;14.15;;
37859;SDS011;23698;52.014;5.190;2023-03-01T06:55:53;20.67;;;11.45;;
37859;SDS011;23698;52.014;5.190;2023-03-01T06:58:42;24.73;;;12.38;;
37859;SDS011;23698;52.014;5.190;2023-03-01T07:01:28;25.88;;;12.07;;
37859;SDS011;23698;52.014;5.190;2023-03-01T07:04:15;29.50;;;11.98;;
37859;SDS011;23698;52.014;5.190;2023-03-01T07:07:02;23.20;;;11.73;;
37859;SDS011;23698;52.014;5.190;2023-03-01T07:09:48;34.10;;;17.10;;
37859;SDS011;23698;52.014;5.190;2023-03-01T07:12:35;26.70;;;14.13;;
37859;SDS011;23698;52.014;5.190;2023-03-01T07:15:23;26.92;;;13.65;;
37859;SDS011;23698;52.014;5.190;2023-03-01T07:18:09;26.17;;;13.57;;
37859;SDS011;23698;52.014;5.190;2023-03-01T07:20:56;23.98;;;12.52;;
37859;SDS011;23698;52.014;5.190;2023-03-01T07:23:43;25.60;;;12.50;;
37859;SDS011;23698;52.014;5.190;2023-03-01T07:26:29;22.27;;;11.68;;
37859;SDS011;23698;52.014;5.190;2023-03-01T07:29:16;24.50;;;12.75;;
37859;SDS011;23698;52.014;5.190;2023-03-01T07:32:04;21.65;;;11.40;;
37859;SDS011;23698;52.014;5.190;2023-03-01T07:34:52;22.77;;;12.23;;
37859;SDS011;23698;52.014;5.190;2023-03-01T07:37:38;22.10;;;11.48;;
37859;SDS011;23698;52.014;5.190;2023-03-01T07:40:24;18.67;;;10.90;;
37859;SDS011;23698;52.014;5.190;2023-03-01T07:43:11;22.20;;;10.80;;
37859;SDS011;23698;52.014;5.190;2023-03-01T07:45:58;19.25;;;10.32;;
37859;SDS011;23698;52.014;5.190;2023-03-01T07:48:46;19.80;;;9.90;;
37859;SDS011;23698;52.014;5.190;2023-03-01T07:51:33;19.88;;;10.63;;
37859;SDS011;23698;52.014;5.190;2023-03-01T07:54:20;25.05;;;10.50;;
37859;SDS011;23698;52.014;5.190;2023-03-01T07:57:06;17.60;;;9.55;;
37859;SDS011;23698;52.014;5.190;2023-03-01T07:59:53;17.70;;;9.70;;
37859;SDS011;23698;52.014;5.190;2023-03-01T08:02:39;15.43;;;8.77;;
37859;SDS011;23698;52.014;5.190;2023-03-01T08:05:28;20.85;;;9.43;;
37859;SDS011;23698;52.014;5.190;2023-03-01T08:08:14;40.08;;;9.48;;
37859;SDS011;23698;52.014;5.190;2023-03-01T08:11:04;16.27;;;9.35;;
37859;SDS011;23698;52.014;5.190;2023-03-01T08:13:51;18.00;;;8.50;;
37859;SDS011;23698;52.014;5.190;2023-03-01T08:16:38;17.38;;;8.98;;
37859;SDS011;23698;52.014;5.190;2023-03-01T08:19:24;14.43;;;8.43;;
37859;SDS011;23698;52.014;5.190;2023-03-01T08:22:14;12.60;;;8.07;;
37859;SDS011;23698;52.014;5.190;2023-03-01T08:25:00;13.18;;;7.22;;
37859;SDS011;23698;52.014;5.190;2023-03-01T08:27:47;10.38;;;6.53;;
37859;SDS011;23698;52.014;5.190;2023-03-01T08:30:34;14.65;;;7.68;;
37859;SDS011;23698;52.014;5.190;2023-03-01T08:33:21;13.05;;;7.18;;
37859;SDS011;23698;52.014;5.190;2023-03-01T08:36:07;11.30;;;5.90;;
37859;SDS011;23698;52.014;5.190;2023-03-01T08:38:55;13.60;;;6.00;;
37859;SDS011;23698;52.014;5.190;2023-03-01T08:41:42;14.45;;;6.45;;
37859;SDS011;23698;52.014;5.190;2023-03-01T08:44:31;10.15;;;6.15;;
37859;SDS011;23698;52.014;5.190;2023-03-01T08:47:18;10.73;;;6.03;;
37859;SDS011;23698;52.014;5.190;2023-03-01T08:50:05;13.77;;;6.50;;
37859;SDS011;23698;52.014;5.190;2023-03-01T08:52:52;10.73;;;6.10;;
37859;SDS011;23698;52.014;5.190;2023-03-01T08:55:40;11.70;;;6.15;;
37859;SDS011;23698;52.014;5.190;2023-03-01T08:58:26;9.02;;;5.53;;
37859;SDS011;23698;52.014;5.190;2023-03-01T09:01:14;8.60;;;5.15;;
37859;SDS011;23698;52.014;5.190;2023-03-01T09:04:01;10.57;;;6.78;;
37859;SDS011;23698;52.014;5.190;2023-03-01T09:06:48;10.20;;;6.00;;
37859;SDS011;23698;52.014;5.190;2023-03-01T09:09:34;10.85;;;5.72;;
37859;SDS011;23698;52.014;5.190;2023-03-01T09:12:23;9.98;;;5.90;;
37859;SDS011;23698;52.014;5.190;2023-03-01T09:15:10;9.65;;;5.88;;
37859;SDS011;23698;52.014;5.190;2023-03-01T09:17:57;10.73;;;5.38;;
37859;SDS011;23698;52.014;5.190;2023-03-01T09:20:44;8.93;;;5.40;;
37859;SDS011;23698;52.014;5.190;2023-03-01T09:23:31;12.15;;;5.50;;
37859;SDS011;23698;52.014;5.190;2023-03-01T09:26:18;10.95;;;5.22;;
37859;SDS011;23698;52.014;5.190;2023-03-01T09:29:07;9.15;;;5.05;;
37859;SDS011;23698;52.014;5.190;2023-03-01T09:31:55;9.05;;;5.22;;
37859;SDS011;23698;52.014;5.190;2023-03-01T09:34:41;9.85;;;5.40;;
37859;SDS011;23698;52.014;5.190;2023-03-01T09:37:45;7.55;;;5.55;;
37859;SDS011;23698;52.014;5.190;2023-03-01T09:40:34;7.93;;;4.85;;
37859;SDS011;23698;52.014;5.190;2023-03-01T09:43:21;9.05;;;4.10;;
37859;SDS011;23698;52.014;5.190;2023-03-01T09:46:13;8.20;;;4.03;;
37859;SDS011;23698;52.014;5.190;2023-03-01T09:49:02;7.38;;;4.30;;
37859;SDS011;23698;52.014;5.190;2023-03-01T09:51:57;8.05;;;3.53;;
37859;SDS011;23698;52.014;5.190;2023-03-01T09:54:46;10.57;;;4.75;;
37859;SDS011;23698;52.014;5.190;2023-03-01T09:57:36;8.82;;;3.03;;
37859;SDS011;23698;52.014;5.190;2023-03-01T10:00:30;7.82;;;4.13;;
37859;SDS011;23698;52.014;5.190;2023-03-01T10:03:26;7.80;;;3.60;;
37859;SDS011;23698;52.014;5.190;2023-03-01T10:06:19;7.53;;;3.97;;
37859;SDS011;23698;52.014;5.190;2023-03-01T10:09:19;6.50;;;3.40;;
37859;SDS011;23698;52.014;5.190;2023-03-01T10:12:08;7.43;;;3.67;;
37859;SDS011;23698;52.014;5.190;2023-03-01T10:14:58;5.88;;;3.28;;
37859;SDS011;23698;52.014;5.190;2023-03-01T10:17:50;6.60;;;3.17;;
37859;SDS011;23698;52.014;5.190;2023-03-01T10:20:45;7.88;;;3.67;;
37859;SDS011;23698;52.014;5.190;2023-03-01T10:23:37;7.90;;;3.70;;
37859;SDS011;23698;52.014;5.190;2023-03-01T10:26:30;5.30;;;3.60;;
37859;SDS011;23698;52.014;5.190;2023-03-01T10:32:17;7.43;;;3.40;;
37859;SDS011;23698;52.014;5.190;2023-03-01T10:35:15;6.15;;;3.08;;
37859;SDS011;23698;52.014;5.190;2023-03-01T10:38:05;5.68;;;2.92;;
37859;SDS011;23698;52.014;5.190;2023-03-01T10:40:53;6.50;;;3.30;;
37859;SDS011;23698;52.014;5.190;2023-03-01T10:43:43;9.45;;;3.67;;
37859;SDS011;23698;52.014;5.190;2023-03-01T10:46:32;7.32;;;3.20;;
37859;SDS011;23698;52.014;5.190;2023-03-01T10:49:21;6.28;;;3.33;;
37859;SDS011;23698;52.014;5.190;2023-03-01T10:52:17;6.28;;;3.15;;
37859;SDS011;23698;52.014;5.190;2023-03-01T10:55:19;8.88;;;3.45;;
37859;SDS011;23698;52.014;5.190;2023-03-01T10:58:17;6.35;;;3.92;;
37859;SDS011;23698;52.014;5.190;2023-03-01T11:01:23;5.88;;;3.20;;
37859;SDS011;23698;52.014;5.190;2023-03-01T11:04:12;5.30;;;3.47;;
37859;SDS011;23698;52.014;5.190;2023-03-01T11:07:00;8.07;;;3.85;;
37859;SDS011;23698;52.014;5.190;2023-03-01T11:09:48;7.07;;;3.90;;
37859;SDS011;23698;52.014;5.190;2023-03-01T11:12:36;6.38;;;3.20;;
37859;SDS011;23698;52.014;5.190;2023-03-01T11:15:24;7.63;;;3.42;;
37859;SDS011;23698;52.014;5.190;2023-03-01T11:18:19;5.30;;;3.75;;
37859;SDS011;23698;52.014;5.190;2023-03-01T11:21:18;13.30;;;3.85;;
37859;SDS011;23698;52.014;5.190;2023-03-01T11:24:05;6.30;;;4.00;;
37859;SDS011;23698;52.014;5.190;2023-03-01T11:26:56;6.57;;;3.92;;
37859;SDS011;23698;52.014;5.190;2023-03-01T11:29:51;5.38;;;3.30;;
37859;SDS011;23698;52.014;5.190;2023-03-01T11:32:42;6.97;;;4.13;;
37859;SDS011;23698;52.014;5.190;2023-03-01T11:35:32;6.55;;;3.90;;
37859;SDS011;23698;52.014;5.190;2023-03-01T11:38:22;6.95;;;3.10;;
37859;SDS011;23698;52.014;5.190;2023-03-01T11:41:12;5.43;;;2.55;;
37859;SDS011;23698;52.014;5.190;2023-03-01T11:46:54;7.07;;;2.85;;
37859;SDS011;23698;52.014;5.190;2023-03-01T11:50:05;6.20;;;3.15;;
37859;SDS011;23698;52.014;5.190;2023-03-01T11:53:18;4.53;;;2.78;;
37859;SDS011;23698;52.014;5.190;2023-03-01T11:56:22;6.70;;;3.03;;
37859;SDS011;23698;52.014;5.190;2023-03-01T11:59:22;4.43;;;2.35;;
37859;SDS011;23698;52.014;5.190;2023-03-01T12:02:42;4.28;;;2.25;;
37859;SDS011;23698;52.014;5.190;2023-03-01T12:05:51;5.38;;;2.55;;
37859;SDS011;23698;52.014;5.190;2023-03-01T12:08:49;4.45;;;2.35;;
37859;SDS011;23698;52.014;5.190;2023-03-01T12:11:51;6.25;;;2.92;;
37859;SDS011;23698;52.014;5.190;2023-03-01T12:14:55;4.22;;;2.30;;
37859;SDS011;23698;52.014;5.190;2023-03-01T12:21:20;4.80;;;2.40;;
37859;SDS011;23698;52.014;5.190;2023-03-01T12:24:27;4.72;;;2.35;;
37859;SDS011;23698;52.014;5.190;2023-03-01T12:31:05;8.57;;;2.90;;
37859;SDS011;23698;52.014;5.190;2023-03-01T12:34:11;5.57;;;2.40;;
37859;SDS011;23698;52.014;5.190;2023-03-01T12:37:13;4.35;;;2.85;;
37859;SDS011;23698;52.014;5.190;2023-03-01T12:40:23;5.28;;;2.85;;
37859;SDS011;23698;52.014;5.190;2023-03-01T12:43:33;5.85;;;3.10;;
37859;SDS011;23698;52.014;5.190;2023-03-01T12:46:33;6.10;;;3.40;;
37859;SDS011;23698;52.014;5.190;2023-03-01T12:49:30;10.15;;;3.15;;
37859;SDS011;23698;52.014;5.190;2023-03-01T12:52:21;7.22;;;3.28;;
37859;SDS011;23698;52.014;5.190;2023-03-01T12:55:18;10.88;;;3.50;;
37859;SDS011;23698;52.014;5.190;2023-03-01T12:58:13;7.60;;;3.40;;
37859;SDS011;23698;52.014;5.190;2023-03-01T13:01:21;6.43;;;3.20;;
37859;SDS011;23698;52.014;5.190;2023-03-01T13:04:14;5.40;;;3.33;;
37859;SDS011;23698;52.014;5.190;2023-03-01T13:07:17;4.47;;;2.67;;
37859;SDS011;23698;52.014;5.190;2023-03-01T13:10:16;6.47;;;3.13;;
37859;SDS011;23698;52.014;5.190;2023-03-01T13:13:12;5.93;;;2.97;;
37859;SDS011;23698;52.014;5.190;2023-03-01T13:19:25;6.95;;;3.03;;
37859;SDS011;23698;52.014;5.190;2023-03-01T13:22:28;6.20;;;3.15;;
37859;SDS011;23698;52.014;5.190;2023-03-01T13:25:19;5.15;;;2.95;;
37859;SDS011;23698;52.014;5.190;2023-03-01T13:34:47;5.85;;;3.72;;
37859;SDS011;23698;52.014;5.190;2023-03-01T13:37:39;5.97;;;3.10;;
37859;SDS011;23698;52.014;5.190;2023-03-01T13:43:44;5.60;;;3.28;;
37859;SDS011;23698;52.014;5.190;2023-03-01T13:46:32;4.15;;;2.90;;
37859;SDS011;23698;52.014;5.190;2023-03-01T13:49:21;5.90;;;3.17;;
37859;SDS011;23698;52.014;5.190;2023-03-01T13:52:21;4.38;;;2.90;;
37859;SDS011;23698;52.014;5.190;2023-03-01T13:55:24;10.18;;;3.78;;
37859;SDS011;23698;52.014;5.190;2023-03-01T13:58:18;4.75;;;2.67;;
37859;SDS011;23698;52.014;5.190;2023-03-01T14:01:18;5.28;;;3.20;;
37859;SDS011;23698;52.014;5.190;2023-03-01T14:04:18;5.38;;;3.10;;
37859;SDS011;23698;52.014;5.190;2023-03-01T14:07:10;6.03;;;3.35;;
37859;SDS011;23698;52.014;5.190;2023-03-01T14:09:58;7.28;;;3.40;;
37859;SDS011;23698;52.014;5.190;2023-03-01T14:12:49;5.63;;;3.28;;
37859;SDS011;23698;52.014;5.190;2023-03-01T14:15:49;6.47;;;3.10;;
37859;SDS011;23698;52.014;5.190;2023-03-01T14:18:45;6.65;;;2.95;;
37859;SDS011;23698;52.014;5.190;2023-03-01T14:21:37;6.68;;;3.40;;
37859;SDS011;23698;52.014;5.190;2023-03-01T14:24:24;6.05;;;3.13;;
37859;SDS011;23698;52.014;5.190;2023-03-01T14:27:12;5.30;;;3.10;;
37859;SDS011;23698;52.014;5.190;2023-03-01T14:30:02;6.47;;;3.08;;
37859;SDS011;23698;52.014;5.190;2023-03-01T14:32:53;4.50;;;2.60;;
37859;SDS011;23698;52.014;5.190;2023-03-01T14:35:42;5.38;;;2.55;;
37859;SDS011;23698;52.014;5.190;2023-03-01T14:38:38;5.75;;;3.30;;
37859;SDS011;23698;52.014;5.190;2023-03-01T14:41:27;5.25;;;3.20;;
37859;SDS011;23698;52.014;5.190;2023-03-01T14:44:15;4.53;;;2.70;;
37859;SDS011;23698;52.014;5.190;2023-03-01T14:47:10;8.15;;;3.25;;
37859;SDS011;23698;52.014;5.190;2023-03-01T14:49:59;4.47;;;3.03;;
37859;SDS011;23698;52.014;5.190;2023-03-01T14:52:48;6.97;;;3.08;;
37859;SDS011;23698;52.014;5.190;2023-03-01T14:55:37;5.97;;;2.60;;
37859;SDS011;23698;52.014;5.190;2023-03-01T14:58:26;5.07;;;3.00;;
37859;SDS011;23698;52.014;5.190;2023-03-01T15:01:13;4.55;;;2.65;;
37859;SDS011;23698;52.014;5.190;2023-03-01T15:04:03;6.80;;;3.00;;
37859;SDS011;23698;52.014;5.190;2023-03-01T15:06:51;5.35;;;2.80;;
37859;SDS011;23698;52.014;5.190;2023-03-01T15:09:39;4.65;;;2.92;;
37859;SDS011;23698;52.014;5.190;2023-03-01T15:12:34;5.75;;;3.03;;
37859;SDS011;23698;52.014;5.190;2023-03-01T15:15:30;6.28;;;3.10;;
37859;SDS011;23698;52.014;5.190;2023-03-01T15:18:21;4.53;;;2.85;;
37859;SDS011;23698;52.014;5.190;2023-03-01T15:21:17;5.57;;;3.03;;
37859;SDS011;23698;52.014;5.190;2023-03-01T15:24:05;4.65;;;3.13;;
37859;SDS011;23698;52.014;5.190;2023-03-01T15:27:04;9.50;;;3.40;;
37859;SDS011;23698;52.014;5.190;2023-03-01T15:29:52;7.40;;;3.63;;
37859;SDS011;23698;52.014;5.190;2023-03-01T15:32:42;7.38;;;3.40;;
37859;SDS011;23698;52.014;5.190;2023-03-01T15:35:32;6.05;;;3.10;;
37859;SDS011;23698;52.014;5.190;2023-03-01T15:38:36;4.55;;;3.08;;
37859;SDS011;23698;52.014;5.190;2023-03-01T15:41:46;7.32;;;3.45;;
37859;SDS011;23698;52.014;5.190;2023-03-01T15:44:34;5.75;;;3.08;;
37859;SDS011;23698;52.014;5.190;2023-03-01T15:47:29;6.43;;;3.35;;
37859;SDS011;23698;52.014;5.190;2023-03-01T15:50:18;4.82;;;3.13;;
37859;SDS011;23698;52.014;5.190;2023-03-01T15:53:08;6.25;;;3.47;;
37859;SDS011;23698;52.014;5.190;2023-03-01T15:56:00;6.32;;;3.10;;
37859;SDS011;23698;52.014;5.190;2023-03-01T15:58:47;5.03;;;3.15;;
37859;SDS011;23698;52.014;5.190;2023-03-01T16:01:33;8.93;;;3.05;;
37859;SDS011;23698;52.014;5.190;2023-03-01T16:04:20;6.35;;;3.30;;
37859;SDS011;23698;52.014;5.190;2023-03-01T16:07:08;7.93;;;3.33;;
37859;SDS011;23698;52.014;5.190;2023-03-01T16:09:55;5.80;;;3.33;;
37859;SDS011;23698;52.014;5.190;2023-03-01T16:12:43;5.10;;;3.05;;
37859;SDS011;23698;52.014;5.190;2023-03-01T16:15:30;4.57;;;3.08;;
37859;SDS011;23698;52.014;5.190;2023-03-01T16:18:18;5.50;;;3.10;;
37859;SDS011;23698;52.014;5.190;2023-03-01T16:21:04;5.15;;;2.85;;
37859;SDS011;23698;52.014;5.190;2023-03-01T16:23:51;6.07;;;3.10;;
37859;SDS011;23698;52.014;5.190;2023-03-01T16:26:38;6.70;;;3.17;;
37859;SDS011;23698;52.014;5.190;2023-03-01T16:29:26;7.60;;;3.75;;
37859;SDS011;23698;52.014;5.190;2023-03-01T16:32:13;5.75;;;3.92;;
37859;SDS011;23698;52.014;5.190;2023-03-01T16:35:00;5.20;;;3.38;;
37859;SDS011;23698;52.014;5.190;2023-03-01T16:37:47;10.57;;;4.07;;
37859;SDS011;23698;52.014;5.190;2023-03-01T16:40:33;9.70;;;3.97;;
37859;SDS011;23698;52.014;5.190;2023-03-01T16:43:20;7.28;;;3.53;;
37859;SDS011;23698;52.014;5.190;2023-03-01T16:46:11;5.15;;;3.08;;
37859;SDS011;23698;52.014;5.190;2023-03-01T16:48:58;5.95;;;3.35;;
37859;SDS011;23698;52.014;5.190;2023-03-01T16:51:45;10.30;;;3.28;;
37859;SDS011;23698;52.014;5.190;2023-03-01T16:54:31;7.50;;;3.58;;
37859;SDS011;23698;52.014;5.190;2023-03-01T16:57:18;7.88;;;3.30;;
37859;SDS011;23698;52.014;5.190;2023-03-01T17:00:10;9.52;;;3.55;;
37859;SDS011;23698;52.014;5.190;2023-03-01T17:02:59;8.23;;;3.70;;
37859;SDS011;23698;52.014;5.190;2023-03-01T17:05:46;7.35;;;3.50;;
37859;SDS011;23698;52.014;5.190;2023-03-01T17:08:32;6.13;;;3.83;;
37859;SDS011;23698;52.014;5.190;2023-03-01T17:11:19;5.25;;;3.42;;
37859;SDS011;23698;52.014;5.190;2023-03-01T17:14:06;7.05;;;3.50;;
37859;SDS011;23698;52.014;5.190;2023-03-01T17:16:53;6.40;;;3.60;;
37859;SDS011;23698;52.014;5.190;2023-03-01T17:19:40;9.15;;;3.88;;
37859;SDS011;23698;52.014;5.190;2023-03-01T17:22:28;6.85;;;3.60;;
37859;SDS011;23698;52.014;5.190;2023-03-01T17:25:15;5.95;;;3.65;;
37859;SDS011;23698;52.014;5.190;2023-03-01T17:28:01;6.65;;;3.83;;
37859;SDS011;23698;52.014;5.190;2023-03-01T17:30:48;8.85;;;3.55;;
37859;SDS011;23698;52.014;5.190;2023-03-01T17:33:34;7.13;;;3.90;;
37859;SDS011;23698;52.014;5.190;2023-03-01T17:36:22;6.78;;;4.00;;
37859;SDS011;23698;52.014;5.190;2023-03-01T17:39:10;6.95;;;3.90;;
37859;SDS011;23698;52.014;5.190;2023-03-01T17:41:56;7.20;;;3.80;;
37859;SDS011;23698;52.014;5.190;2023-03-01T17:44:43;8.57;;;3.95;;
37859;SDS011;23698;52.014;5.190;2023-03-01T17:47:29;9.43;;;4.75;;
37859;SDS011;23698;52.014;5.190;2023-03-01T17:50:16;7.82;;;4.45;;
37859;SDS011;23698;52.014;5.190;2023-03-01T17:53:04;6.38;;;3.53;;
37859;SDS011;23698;52.014;5.190;2023-03-01T17:55:58;6.93;;;3.58;;